sensor_id;sensor_type;location;lat;lon;timestamp;temperature;humidity
6379;DHT22;3222;48.858;10.128;2023-02-11T00:01:24;-0.80;99.90
6379;DHT22;3222;48.858;10.128;2023-02-11T00:03:50;-0.80;99.90
6379;DHT22;3222;48.858;10.128;2023-02-11T00:06:15;-0.80;99.90
6379;DHT22;3222;48.858;10.128;2023-02-11T00:08:41;-0.80;99.90
6379;DHT22;3222;48.858;10.128;2023-02-11T00:11:15;-0.80;99.90
6379;DHT22;3222;48.858;10.128;2023-02-11T00:13:42;-0.80;99.90
6379;DHT22;3222;48.858;10.128;2023-02-11T00:16:10;-0.80;99.90
6379;DHT22;3222;48.858;10.128;2023-02-11T00:18:37;-0.80;99.90
6379;DHT22;3222;48.858;10.128;2023-02-11T00:21:10;-0.80;99.90
6379;DHT22;3222;48.858;10.128;2023-02-11T00:23:36;-0.80;99.90
6379;DHT22;3222;48.858;10.128;2023-02-11T00:26:03;-0.80;99.90
6379;DHT22;3222;48.858;10.128;2023-02-11T00:28:29;-0.80;99.90
6379;DHT22;3222;48.858;10.128;2023-02-11T00:30:56;-0.80;99.90
6379;DHT22;3222;48.858;10.128;2023-02-11T00:33:21;-0.80;99.90
6379;DHT22;3222;48.858;10.128;2023-02-11T00:35:47;-0.80;99.90
6379;DHT22;3222;48.858;10.128;2023-02-11T00:38:13;-0.80;99.90
6379;DHT22;3222;48.858;10.128;2023-02-11T00:40:39;-0.90;99.90
6379;DHT22;3222;48.858;10.128;2023-02-11T00:43:04;-0.80;99.90
6379;DHT22;3222;48.858;10.128;2023-02-11T00:45:30;-0.80;99.90
6379;DHT22;3222;48.858;10.128;2023-02-11T00:47:56;-0.70;99.90
6379;DHT22;3222;48.858;10.128;2023-02-11T00:50:22;-0.80;99.90
6379;DHT22;3222;48.858;10.128;2023-02-11T00:52:48;-0.80;99.90
6379;DHT22;3222;48.858;10.128;2023-02-11T00:55:14;-0.80;99.90
6379;DHT22;3222;48.858;10.128;2023-02-11T00:57:40;-0.90;99.90
6379;DHT22;3222;48.858;10.128;2023-02-11T01:00:13;-0.90;99.90
6379;DHT22;3222;48.858;10.128;2023-02-11T01:02:39;-0.90;99.90
6379;DHT22;3222;48.858;10.128;2023-02-11T01:05:05;-0.90;99.90
6379;DHT22;3222;48.858;10.128;2023-02-11T01:07:31;-1.00;99.90
6379;DHT22;3222;48.858;10.128;2023-02-11T01:09:57;-1.00;99.90
6379;DHT22;3222;48.858;10.128;2023-02-11T01:12:23;-1.10;99.90
6379;DHT22;3222;48.858;10.128;2023-02-11T01:14:49;-1.00;99.90
6379;DHT22;3222;48.858;10.128;2023-02-11T01:17:17;-1.10;99.90
6379;DHT22;3222;48.858;10.128;2023-02-11T01:19:42;-1.10;99.90
6379;DHT22;3222;48.858;10.128;2023-02-11T01:22:08;-1.10;99.90
6379;DHT22;3222;48.858;10.128;2023-02-11T01:24:34;-1.10;99.90
6379;DHT22;3222;48.858;10.128;2023-02-11T01:27:00;-1.10;99.90
6379;DHT22;3222;48.858;10.128;2023-02-11T01:29:25;-1.10;99.90
6379;DHT22;3222;48.858;10.128;2023-02-11T01:31:53;-1.10;99.90
6379;DHT22;3222;48.858;10.128;2023-02-11T01:34:19;-1.10;99.90
6379;DHT22;3222;48.858;10.128;2023-02-11T01:36:44;-1.10;99.90
6379;DHT22;3222;48.858;10.128;2023-02-11T01:39:10;-1.10;99.90
6379;DHT22;3222;48.858;10.128;2023-02-11T01:41:36;-1.10;99.90
6379;DHT22;3222;48.858;10.128;2023-02-11T01:44:40;-1.10;99.90
6379;DHT22;3222;48.858;10.128;2023-02-11T01:47:06;-1.20;99.90
6379;DHT22;3222;48.858;10.128;2023-02-11T01:49:34;-1.20;99.90
6379;DHT22;3222;48.858;10.128;2023-02-11T01:52:27;-1.20;99.90
6379;DHT22;3222;48.858;10.128;2023-02-11T01:54:57;-1.10;99.90
6379;DHT22;3222;48.858;10.128;2023-02-11T01:57:46;-1.10;99.90
6379;DHT22;3222;48.858;10.128;2023-02-11T02:00:20;-1.00;99.90
6379;DHT22;3222;48.858;10.128;2023-02-11T02:10:35;-0.80;99.90
6379;DHT22;3222;48.858;10.128;2023-02-11T02:13:02;-0.80;99.90
6379;DHT22;3222;48.858;10.128;2023-02-11T02:15:32;-0.70;99.90
6379;DHT22;3222;48.858;10.128;2023-02-11T02:26:02;-0.90;99.90
6379;DHT22;3222;48.858;10.128;2023-02-11T02:34:14;-1.10;99.90
6379;DHT22;3222;48.858;10.128;2023-02-11T02:36:51;-1.00;99.90
6379;DHT22;3222;48.858;10.128;2023-02-11T02:39:25;-1.10;99.90
6379;DHT22;3222;48.858;10.128;2023-02-11T02:41:52;-1.10;99.90
6379;DHT22;3222;48.858;10.128;2023-02-11T02:44:19;-1.10;99.90
6379;DHT22;3222;48.858;10.128;2023-02-11T02:46:45;-1.10;99.90
6379;DHT22;3222;48.858;10.128;2023-02-11T02:49:12;-1.10;99.90
6379;DHT22;3222;48.858;10.128;2023-02-11T03:08:42;-1.00;99.90
6379;DHT22;3222;48.858;10.128;2023-02-11T03:11:10;-0.90;99.90
6379;DHT22;3222;48.858;10.128;2023-02-11T03:13:38;-0.90;99.90
6379;DHT22;3222;48.858;10.128;2023-02-11T03:16:20;-0.80;99.90
6379;DHT22;3222;48.858;10.128;2023-02-11T03:18:52;-0.80;99.90
6379;DHT22;3222;48.858;10.128;2023-02-11T03:21:21;-0.90;99.90
6379;DHT22;3222;48.858;10.128;2023-02-11T03:23:57;-0.90;99.90
6379;DHT22;3222;48.858;10.128;2023-02-11T03:26:35;-0.90;99.90
6379;DHT22;3222;48.858;10.128;2023-02-11T03:29:23;-1.00;99.90
6379;DHT22;3222;48.858;10.128;2023-02-11T03:32:15;-0.90;99.90
6379;DHT22;3222;48.858;10.128;2023-02-11T03:34:53;-0.90;99.90
6379;DHT22;3222;48.858;10.128;2023-02-11T03:40:09;-0.80;99.90
6379;DHT22;3222;48.858;10.128;2023-02-11T03:42:41;-0.80;99.90
6379;DHT22;3222;48.858;10.128;2023-02-11T03:45:11;-0.90;99.90
6379;DHT22;3222;48.858;10.128;2023-02-11T03:47:39;-0.80;99.90
6379;DHT22;3222;48.858;10.128;2023-02-11T03:50:09;-0.90;99.90
6379;DHT22;3222;48.858;10.128;2023-02-11T03:52:37;-0.90;99.90
6379;DHT22;3222;48.858;10.128;2023-02-11T03:55:08;-0.90;99.90
6379;DHT22;3222;48.858;10.128;2023-02-11T03:57:36;-0.80;99.90
6379;DHT22;3222;48.858;10.128;2023-02-11T04:00:02;-0.90;99.90
6379;DHT22;3222;48.858;10.128;2023-02-11T04:02:37;-0.80;99.90
6379;DHT22;3222;48.858;10.128;2023-02-11T04:05:07;-0.80;99.90
6379;DHT22;3222;48.858;10.128;2023-02-11T04:07:33;-0.80;99.90
6379;DHT22;3222;48.858;10.128;2023-02-11T04:09:59;-0.80;99.90
6379;DHT22;3222;48.858;10.128;2023-02-11T04:12:24;-0.80;99.90
6379;DHT22;3222;48.858;10.128;2023-02-11T04:14:50;-0.70;99.90
6379;DHT22;3222;48.858;10.128;2023-02-11T04:17:16;-0.80;99.90
6379;DHT22;3222;48.858;10.128;2023-02-11T04:19:42;-0.80;99.90
6379;DHT22;3222;48.858;10.128;2023-02-11T04:22:07;-0.90;99.90
6379;DHT22;3222;48.858;10.128;2023-02-11T04:24:34;-0.90;99.90
6379;DHT22;3222;48.858;10.128;2023-02-11T04:26:59;-0.80;99.90
6379;DHT22;3222;48.858;10.128;2023-02-11T04:29:25;-0.80;99.90
6379;DHT22;3222;48.858;10.128;2023-02-11T04:31:51;-0.70;99.90
6379;DHT22;3222;48.858;10.128;2023-02-11T04:34:16;-0.80;99.90
6379;DHT22;3222;48.858;10.128;2023-02-11T04:36:42;-0.70;99.90
6379;DHT22;3222;48.858;10.128;2023-02-11T04:39:08;-0.80;99.90
6379;DHT22;3222;48.858;10.128;2023-02-11T04:41:33;-0.80;99.90
6379;DHT22;3222;48.858;10.128;2023-02-11T04:43:59;-0.80;99.90
6379;DHT22;3222;48.858;10.128;2023-02-11T04:46:25;-0.90;99.90
6379;DHT22;3222;48.858;10.128;2023-02-11T04:48:51;-0.80;99.90
6379;DHT22;3222;48.858;10.128;2023-02-11T04:51:16;-0.90;99.90
6379;DHT22;3222;48.858;10.128;2023-02-11T04:53:42;-0.90;99.90
6379;DHT22;3222;48.858;10.128;2023-02-11T04:56:08;-0.90;99.90
6379;DHT22;3222;48.858;10.128;2023-02-11T04:58:33;-0.80;99.90
6379;DHT22;3222;48.858;10.128;2023-02-11T05:01:13;-0.80;99.90
6379;DHT22;3222;48.858;10.128;2023-02-11T05:03:39;-0.90;99.90
6379;DHT22;3222;48.858;10.128;2023-02-11T05:06:06;-0.80;99.90
6379;DHT22;3222;48.858;10.128;2023-02-11T05:08:32;-0.80;99.90
6379;DHT22;3222;48.858;10.128;2023-02-11T05:10:58;-0.80;99.90
6379;DHT22;3222;48.858;10.128;2023-02-11T05:13:24;-0.80;99.90
6379;DHT22;3222;48.858;10.128;2023-02-11T05:15:50;-0.80;99.90
6379;DHT22;3222;48.858;10.128;2023-02-11T05:18:15;-0.90;99.90
6379;DHT22;3222;48.858;10.128;2023-02-11T05:20:42;-0.90;99.90
6379;DHT22;3222;48.858;10.128;2023-02-11T05:23:08;-0.90;99.90
6379;DHT22;3222;48.858;10.128;2023-02-11T05:25:34;-0.90;99.90
6379;DHT22;3222;48.858;10.128;2023-02-11T05:27:59;-0.80;99.90
6379;DHT22;3222;48.858;10.128;2023-02-11T05:30:26;-0.80;99.90
6379;DHT22;3222;48.858;10.128;2023-02-11T05:32:51;-0.80;99.90
6379;DHT22;3222;48.858;10.128;2023-02-11T05:35:17;-0.80;99.90
6379;DHT22;3222;48.858;10.128;2023-02-11T05:37:43;-0.80;99.90
6379;DHT22;3222;48.858;10.128;2023-02-11T05:40:09;-0.70;99.90
6379;DHT22;3222;48.858;10.128;2023-02-11T05:42:35;-0.70;99.90
6379;DHT22;3222;48.858;10.128;2023-02-11T05:45:00;-0.70;99.90
6379;DHT22;3222;48.858;10.128;2023-02-11T05:47:26;-0.70;99.90
6379;DHT22;3222;48.858;10.128;2023-02-11T05:49:52;-0.80;99.90
6379;DHT22;3222;48.858;10.128;2023-02-11T05:52:19;-0.80;99.90
6379;DHT22;3222;48.858;10.128;2023-02-11T05:54:44;-0.80;99.90
6379;DHT22;3222;48.858;10.128;2023-02-11T05:57:10;-0.70;99.90
6379;DHT22;3222;48.858;10.128;2023-02-11T05:59:36;-0.80;99.90
6379;DHT22;3222;48.858;10.128;2023-02-11T06:02:01;-0.70;99.90
6379;DHT22;3222;48.858;10.128;2023-02-11T06:04:27;-0.70;99.90
6379;DHT22;3222;48.858;10.128;2023-02-11T06:06:52;-0.60;99.90
6379;DHT22;3222;48.858;10.128;2023-02-11T06:09:18;-0.70;99.90
6379;DHT22;3222;48.858;10.128;2023-02-11T06:11:44;-0.70;99.90
6379;DHT22;3222;48.858;10.128;2023-02-11T06:14:09;-0.70;99.90
6379;DHT22;3222;48.858;10.128;2023-02-11T06:16:35;-0.60;99.90
6379;DHT22;3222;48.858;10.128;2023-02-11T06:19:01;-0.70;99.90
6379;DHT22;3222;48.858;10.128;2023-02-11T06:21:27;-0.70;99.90
6379;DHT22;3222;48.858;10.128;2023-02-11T06:23:52;-0.70;99.90
6379;DHT22;3222;48.858;10.128;2023-02-11T06:26:21;-0.60;99.90
6379;DHT22;3222;48.858;10.128;2023-02-11T06:28:47;-0.50;99.90
6379;DHT22;3222;48.858;10.128;2023-02-11T06:31:13;-0.50;99.90
6379;DHT22;3222;48.858;10.128;2023-02-11T06:33:39;-0.50;99.90
6379;DHT22;3222;48.858;10.128;2023-02-11T06:36:12;-0.40;99.90
6379;DHT22;3222;48.858;10.128;2023-02-11T06:38:38;-0.50;99.90
6379;DHT22;3222;48.858;10.128;2023-02-11T06:41:04;-0.40;99.90
6379;DHT22;3222;48.858;10.128;2023-02-11T06:43:30;-0.50;99.90
6379;DHT22;3222;48.858;10.128;2023-02-11T06:46:01;-0.60;99.90
6379;DHT22;3222;48.858;10.128;2023-02-11T06:48:38;-0.50;99.90
6379;DHT22;3222;48.858;10.128;2023-02-11T06:51:06;-0.50;99.90
6379;DHT22;3222;48.858;10.128;2023-02-11T06:53:39;-0.40;99.90
6379;DHT22;3222;48.858;10.128;2023-02-11T06:56:07;-0.30;99.90
6379;DHT22;3222;48.858;10.128;2023-02-11T06:58:33;-0.30;99.90
6379;DHT22;3222;48.858;10.128;2023-02-11T07:00:59;-0.50;99.90
6379;DHT22;3222;48.858;10.128;2023-02-11T07:03:25;-0.40;99.90
6379;DHT22;3222;48.858;10.128;2023-02-11T07:05:51;-0.40;99.90
6379;DHT22;3222;48.858;10.128;2023-02-11T07:08:16;-0.30;99.90
6379;DHT22;3222;48.858;10.128;2023-02-11T07:10:42;-0.30;99.90
6379;DHT22;3222;48.858;10.128;2023-02-11T07:13:07;-0.40;99.90
6379;DHT22;3222;48.858;10.128;2023-02-11T07:15:33;-0.40;99.90
6379;DHT22;3222;48.858;10.128;2023-02-11T07:18:00;-0.40;99.90
6379;DHT22;3222;48.858;10.128;2023-02-11T07:20:26;-0.30;99.90
6379;DHT22;3222;48.858;10.128;2023-02-11T07:22:52;-0.30;99.90
6379;DHT22;3222;48.858;10.128;2023-02-11T07:25:17;-0.30;99.90
6379;DHT22;3222;48.858;10.128;2023-02-11T07:27:43;-0.30;99.90
6379;DHT22;3222;48.858;10.128;2023-02-11T07:30:09;-0.20;99.90
6379;DHT22;3222;48.858;10.128;2023-02-11T07:32:35;-0.10;99.90
6379;DHT22;3222;48.858;10.128;2023-02-11T07:35:01;-0.20;99.90
6379;DHT22;3222;48.858;10.128;2023-02-11T07:37:26;-0.20;99.90
6379;DHT22;3222;48.858;10.128;2023-02-11T07:39:52;-0.20;99.90
6379;DHT22;3222;48.858;10.128;2023-02-11T07:42:18;-0.10;99.90
6379;DHT22;3222;48.858;10.128;2023-02-11T07:44:45;-0.20;99.90
6379;DHT22;3222;48.858;10.128;2023-02-11T07:47:10;0.00;99.90
6379;DHT22;3222;48.858;10.128;2023-02-11T07:49:36;0.00;99.90
6379;DHT22;3222;48.858;10.128;2023-02-11T07:52:02;-0.10;99.90
6379;DHT22;3222;48.858;10.128;2023-02-11T07:54:27;-0.20;99.90
6379;DHT22;3222;48.858;10.128;2023-02-11T07:56:53;-0.20;99.90
6379;DHT22;3222;48.858;10.128;2023-02-11T07:59:19;-0.10;99.90
6379;DHT22;3222;48.858;10.128;2023-02-11T08:01:44;0.10;99.90
6379;DHT22;3222;48.858;10.128;2023-02-11T08:04:10;0.00;99.90
6379;DHT22;3222;48.858;10.128;2023-02-11T08:06:40;0.00;99.90
6379;DHT22;3222;48.858;10.128;2023-02-11T08:09:07;-0.10;99.90
6379;DHT22;3222;48.858;10.128;2023-02-11T08:11:34;-0.10;99.90
6379;DHT22;3222;48.858;10.128;2023-02-11T08:13:59;0.00;99.90
6379;DHT22;3222;48.858;10.128;2023-02-11T08:16:31;0.00;99.90
6379;DHT22;3222;48.858;10.128;2023-02-11T08:18:59;0.20;99.90
6379;DHT22;3222;48.858;10.128;2023-02-11T08:21:26;0.20;99.90
6379;DHT22;3222;48.858;10.128;2023-02-11T08:23:53;0.10;99.90
6379;DHT22;3222;48.858;10.128;2023-02-11T08:26:20;0.10;99.90
6379;DHT22;3222;48.858;10.128;2023-02-11T08:28:48;0.10;99.90
6379;DHT22;3222;48.858;10.128;2023-02-11T08:31:17;0.20;99.90
6379;DHT22;3222;48.858;10.128;2023-02-11T08:33:43;0.20;99.90
6379;DHT22;3222;48.858;10.128;2023-02-11T08:36:13;0.20;99.90
6379;DHT22;3222;48.858;10.128;2023-02-11T08:38:39;0.20;99.90
6379;DHT22;3222;48.858;10.128;2023-02-11T08:41:05;0.30;99.90
6379;DHT22;3222;48.858;10.128;2023-02-11T08:43:31;0.40;99.90
6379;DHT22;3222;48.858;10.128;2023-02-11T08:45:57;0.40;99.90
6379;DHT22;3222;48.858;10.128;2023-02-11T08:48:23;0.40;99.90
6379;DHT22;3222;48.858;10.128;2023-02-11T08:50:49;0.30;99.90
6379;DHT22;3222;48.858;10.128;2023-02-11T08:53:14;0.40;99.90
6379;DHT22;3222;48.858;10.128;2023-02-11T08:55:53;0.40;99.90
6379;DHT22;3222;48.858;10.128;2023-02-11T08:58:20;0.40;99.90
6379;DHT22;3222;48.858;10.128;2023-02-11T09:00:46;0.50;99.90
6379;DHT22;3222;48.858;10.128;2023-02-11T09:03:13;0.40;99.90
6379;DHT22;3222;48.858;10.128;2023-02-11T09:05:46;0.50;99.90
6379;DHT22;3222;48.858;10.128;2023-02-11T09:08:12;0.50;99.90
6379;DHT22;3222;48.858;10.128;2023-02-11T09:10:38;0.60;99.90
6379;DHT22;3222;48.858;10.128;2023-02-11T09:13:04;0.50;99.90
6379;DHT22;3222;48.858;10.128;2023-02-11T09:15:30;0.50;99.90
6379;DHT22;3222;48.858;10.128;2023-02-11T09:17:56;0.60;99.90
6379;DHT22;3222;48.858;10.128;2023-02-11T09:20:22;0.70;99.90
6379;DHT22;3222;48.858;10.128;2023-02-11T09:22:49;0.80;99.90
6379;DHT22;3222;48.858;10.128;2023-02-11T09:25:14;0.80;99.90
6379;DHT22;3222;48.858;10.128;2023-02-11T09:27:40;1.00;99.90
6379;DHT22;3222;48.858;10.128;2023-02-11T09:30:06;1.00;99.90
6379;DHT22;3222;48.858;10.128;2023-02-11T09:32:32;0.90;99.90
6379;DHT22;3222;48.858;10.128;2023-02-11T09:34:58;1.00;99.90
6379;DHT22;3222;48.858;10.128;2023-02-11T09:37:24;1.00;99.90
6379;DHT22;3222;48.858;10.128;2023-02-11T09:39:49;1.00;99.90
6379;DHT22;3222;48.858;10.128;2023-02-11T09:44:57;0.90;99.90
6379;DHT22;3222;48.858;10.128;2023-02-11T09:47:28;1.10;99.90
6379;DHT22;3222;48.858;10.128;2023-02-11T09:50:10;1.00;99.90
6379;DHT22;3222;48.858;10.128;2023-02-11T09:52:46;1.10;99.90
6379;DHT22;3222;48.858;10.128;2023-02-11T09:55:22;1.20;99.90
6379;DHT22;3222;48.858;10.128;2023-02-11T09:57:49;1.20;99.90
6379;DHT22;3222;48.858;10.128;2023-02-11T10:00:21;1.20;99.90
6379;DHT22;3222;48.858;10.128;2023-02-11T10:03:43;1.20;99.90
6379;DHT22;3222;48.858;10.128;2023-02-11T10:14:17;1.20;99.90
6379;DHT22;3222;48.858;10.128;2023-02-11T10:22:31;1.40;99.90
6379;DHT22;3222;48.858;10.128;2023-02-11T10:25:14;1.40;99.90
6379;DHT22;3222;48.858;10.128;2023-02-11T10:27:41;1.30;99.90
6379;DHT22;3222;48.858;10.128;2023-02-11T10:32:45;1.50;99.90
6379;DHT22;3222;48.858;10.128;2023-02-11T10:35:16;1.50;99.90
6379;DHT22;3222;48.858;10.128;2023-02-11T10:37:43;1.50;99.90
6379;DHT22;3222;48.858;10.128;2023-02-11T10:40:21;1.60;99.90
6379;DHT22;3222;48.858;10.128;2023-02-11T10:42:51;1.60;99.90
6379;DHT22;3222;48.858;10.128;2023-02-11T10:45:47;1.70;99.90
6379;DHT22;3222;48.858;10.128;2023-02-11T10:48:40;1.90;99.90
6379;DHT22;3222;48.858;10.128;2023-02-11T10:53:37;1.90;99.90
6379;DHT22;3222;48.858;10.128;2023-02-11T10:56:05;2.00;99.90
6379;DHT22;3222;48.858;10.128;2023-02-11T10:58:45;2.20;99.90
6379;DHT22;3222;48.858;10.128;2023-02-11T11:01:18;2.20;99.90
6379;DHT22;3222;48.858;10.128;2023-02-11T11:03:51;2.20;99.90
6379;DHT22;3222;48.858;10.128;2023-02-11T11:06:31;2.30;99.90
6379;DHT22;3222;48.858;10.128;2023-02-11T11:08:58;2.30;99.90
6379;DHT22;3222;48.858;10.128;2023-02-11T11:11:25;2.40;99.90
6379;DHT22;3222;48.858;10.128;2023-02-11T11:13:58;2.40;99.90
6379;DHT22;3222;48.858;10.128;2023-02-11T11:21:36;2.60;99.90
6379;DHT22;3222;48.858;10.128;2023-02-11T11:24:05;2.60;99.90
6379;DHT22;3222;48.858;10.128;2023-02-11T11:27:00;2.70;99.90
6379;DHT22;3222;48.858;10.128;2023-02-11T11:29:36;2.70;99.90
6379;DHT22;3222;48.858;10.128;2023-02-11T11:32:21;2.70;99.90
6379;DHT22;3222;48.858;10.128;2023-02-11T11:34:53;2.80;99.90
6379;DHT22;3222;48.858;10.128;2023-02-11T11:40:01;2.90;99.90
6379;DHT22;3222;48.858;10.128;2023-02-11T11:42:33;3.00;99.90
6379;DHT22;3222;48.858;10.128;2023-02-11T11:45:01;3.10;99.90
6379;DHT22;3222;48.858;10.128;2023-02-11T11:47:43;3.10;99.90
6379;DHT22;3222;48.858;10.128;2023-02-11T11:50:29;3.20;99.90
6379;DHT22;3222;48.858;10.128;2023-02-11T11:53:30;3.20;99.90
6379;DHT22;3222;48.858;10.128;2023-02-11T11:56:04;3.20;99.90
6379;DHT22;3222;48.858;10.128;2023-02-11T11:58:32;3.40;99.90
6379;DHT22;3222;48.858;10.128;2023-02-11T12:15:06;3.70;99.90
6379;DHT22;3222;48.858;10.128;2023-02-11T12:37:01;4.00;99.90
6379;DHT22;3222;48.858;10.128;2023-02-11T12:39:41;4.10;99.90
6379;DHT22;3222;48.858;10.128;2023-02-11T12:56:05;4.60;99.90
6379;DHT22;3222;48.858;10.128;2023-02-11T12:58:35;4.50;99.90
6379;DHT22;3222;48.858;10.128;2023-02-11T13:01:05;4.80;99.90
6379;DHT22;3222;48.858;10.128;2023-02-11T13:03:57;4.80;99.90
6379;DHT22;3222;48.858;10.128;2023-02-11T13:06:30;4.80;99.90
6379;DHT22;3222;48.858;10.128;2023-02-11T13:09:03;4.90;99.90
6379;DHT22;3222;48.858;10.128;2023-02-11T13:11:37;5.00;99.90
6379;DHT22;3222;48.858;10.128;2023-02-11T13:14:15;5.00;99.90
6379;DHT22;3222;48.858;10.128;2023-02-11T13:16:47;5.00;99.90
6379;DHT22;3222;48.858;10.128;2023-02-11T13:19:34;5.00;99.90
6379;DHT22;3222;48.858;10.128;2023-02-11T13:24:47;5.00;99.90
6379;DHT22;3222;48.858;10.128;2023-02-11T13:27:35;5.10;99.90
6379;DHT22;3222;48.858;10.128;2023-02-11T13:35:28;5.20;99.90
6379;DHT22;3222;48.858;10.128;2023-02-11T13:37:55;5.30;99.90
6379;DHT22;3222;48.858;10.128;2023-02-11T13:40:23;5.20;99.90
6379;DHT22;3222;48.858;10.128;2023-02-11T13:43:01;5.10;99.90
6379;DHT22;3222;48.858;10.128;2023-02-11T13:45:52;5.10;99.90
6379;DHT22;3222;48.858;10.128;2023-02-11T13:48:22;5.10;99.90
6379;DHT22;3222;48.858;10.128;2023-02-11T13:51:06;5.20;99.90
6379;DHT22;3222;48.858;10.128;2023-02-11T13:54:01;5.20;99.90
6379;DHT22;3222;48.858;10.128;2023-02-11T13:56:29;5.20;99.90
6379;DHT22;3222;48.858;10.128;2023-02-11T13:58:55;5.10;99.90
6379;DHT22;3222;48.858;10.128;2023-02-11T14:08:12;5.10;99.90
6379;DHT22;3222;48.858;10.128;2023-02-11T14:10:59;5.10;99.90
6379;DHT22;3222;48.858;10.128;2023-02-11T14:13:36;5.20;99.90
6379;DHT22;3222;48.858;10.128;2023-02-11T14:16:22;5.20;99.90
6379;DHT22;3222;48.858;10.128;2023-02-11T14:29:31;5.20;99.90
6379;DHT22;3222;48.858;10.128;2023-02-11T14:37:21;5.20;99.90
6379;DHT22;3222;48.858;10.128;2023-02-11T14:40:24;5.10;99.90
6379;DHT22;3222;48.858;10.128;2023-02-11T14:42:52;5.00;99.90
6379;DHT22;3222;48.858;10.128;2023-02-11T14:45:25;5.00;99.90
6379;DHT22;3222;48.858;10.128;2023-02-11T14:48:05;5.00;99.90
6379;DHT22;3222;48.858;10.128;2023-02-11T14:50:56;5.00;99.90
6379;DHT22;3222;48.858;10.128;2023-02-11T14:53:23;5.00;99.90
6379;DHT22;3222;48.858;10.128;2023-02-11T14:55:54;5.00;99.90
6379;DHT22;3222;48.858;10.128;2023-02-11T14:58:30;4.90;99.90
6379;DHT22;3222;48.858;10.128;2023-02-11T15:01:02;4.90;99.90
6379;DHT22;3222;48.858;10.128;2023-02-11T15:03:33;5.00;99.90
6379;DHT22;3222;48.858;10.128;2023-02-11T15:09:12;4.90;99.90
6379;DHT22;3222;48.858;10.128;2023-02-11T15:11:40;4.80;99.90
6379;DHT22;3222;48.858;10.128;2023-02-11T15:16:51;4.80;99.90
6379;DHT22;3222;48.858;10.128;2023-02-11T15:19:45;4.80;99.90
6379;DHT22;3222;48.858;10.128;2023-02-11T15:22:22;4.80;99.90
6379;DHT22;3222;48.858;10.128;2023-02-11T15:27:23;4.90;99.90
6379;DHT22;3222;48.858;10.128;2023-02-11T15:29:50;4.90;99.90
6379;DHT22;3222;48.858;10.128;2023-02-11T15:32:24;4.90;99.90
6379;DHT22;3222;48.858;10.128;2023-02-11T15:34:52;4.90;99.90
6379;DHT22;3222;48.858;10.128;2023-02-11T15:37:25;4.80;99.90
6379;DHT22;3222;48.858;10.128;2023-02-11T15:39:52;4.80;99.90
6379;DHT22;3222;48.858;10.128;2023-02-11T15:44:48;4.80;99.90
6379;DHT22;3222;48.858;10.128;2023-02-11T15:47:18;4.80;99.90
6379;DHT22;3222;48.858;10.128;2023-02-11T15:49:48;4.80;99.90
6379;DHT22;3222;48.858;10.128;2023-02-11T15:52:22;4.80;99.90
6379;DHT22;3222;48.858;10.128;2023-02-11T15:54:50;4.80;99.90
6379;DHT22;3222;48.858;10.128;2023-02-11T15:57:16;4.80;99.90
6379;DHT22;3222;48.858;10.128;2023-02-11T15:59:48;4.70;99.90
6379;DHT22;3222;48.858;10.128;2023-02-11T16:02:18;4.70;99.90
6379;DHT22;3222;48.858;10.128;2023-02-11T16:04:53;4.70;99.90
6379;DHT22;3222;48.858;10.128;2023-02-11T16:07:43;4.70;99.90
6379;DHT22;3222;48.858;10.128;2023-02-11T16:10:17;4.70;99.90
6379;DHT22;3222;48.858;10.128;2023-02-11T16:12:54;4.70;99.90
6379;DHT22;3222;48.858;10.128;2023-02-11T16:20:48;4.80;99.90
6379;DHT22;3222;48.858;10.128;2023-02-11T16:23:30;4.80;99.90
6379;DHT22;3222;48.858;10.128;2023-02-11T16:26:01;4.80;99.90
6379;DHT22;3222;48.858;10.128;2023-02-11T16:28:30;4.80;99.90
6379;DHT22;3222;48.858;10.128;2023-02-11T16:30:56;4.80;99.90
6379;DHT22;3222;48.858;10.128;2023-02-11T16:33:22;4.70;99.90
6379;DHT22;3222;48.858;10.128;2023-02-11T16:35:48;4.60;99.90
6379;DHT22;3222;48.858;10.128;2023-02-11T16:38:15;4.60;99.90
6379;DHT22;3222;48.858;10.128;2023-02-11T16:40:41;4.50;99.90
6379;DHT22;3222;48.858;10.128;2023-02-11T16:43:09;4.50;99.90
6379;DHT22;3222;48.858;10.128;2023-02-11T16:45:38;4.60;99.90
6379;DHT22;3222;48.858;10.128;2023-02-11T16:48:06;4.60;99.90
6379;DHT22;3222;48.858;10.128;2023-02-11T16:50:33;4.50;99.90
6379;DHT22;3222;48.858;10.128;2023-02-11T16:52:59;4.60;99.90
6379;DHT22;3222;48.858;10.128;2023-02-11T16:55:27;4.60;99.90
6379;DHT22;3222;48.858;10.128;2023-02-11T16:57:52;4.50;99.90
6379;DHT22;3222;48.858;10.128;2023-02-11T17:00:18;4.40;99.90
6379;DHT22;3222;48.858;10.128;2023-02-11T17:02:45;4.40;99.90
6379;DHT22;3222;48.858;10.128;2023-02-11T17:05:19;4.40;99.90
6379;DHT22;3222;48.858;10.128;2023-02-11T17:07:45;4.30;99.90
6379;DHT22;3222;48.858;10.128;2023-02-11T17:10:17;4.30;99.90
6379;DHT22;3222;48.858;10.128;2023-02-11T17:12:43;4.40;99.90
6379;DHT22;3222;48.858;10.128;2023-02-11T17:15:09;4.30;99.90
6379;DHT22;3222;48.858;10.128;2023-02-11T17:17:35;4.30;99.90
6379;DHT22;3222;48.858;10.128;2023-02-11T17:20:01;4.30;99.90
6379;DHT22;3222;48.858;10.128;2023-02-11T17:22:26;4.30;99.90
6379;DHT22;3222;48.858;10.128;2023-02-11T17:24:52;4.20;99.90
6379;DHT22;3222;48.858;10.128;2023-02-11T17:27:20;4.30;99.90
6379;DHT22;3222;48.858;10.128;2023-02-11T17:29:46;4.20;99.90
6379;DHT22;3222;48.858;10.128;2023-02-11T17:32:11;4.20;99.90
6379;DHT22;3222;48.858;10.128;2023-02-11T17:34:37;4.10;99.90
6379;DHT22;3222;48.858;10.128;2023-02-11T17:37:03;4.10;99.90
6379;DHT22;3222;48.858;10.128;2023-02-11T17:39:37;4.10;99.90
6379;DHT22;3222;48.858;10.128;2023-02-11T17:42:03;4.10;99.90
6379;DHT22;3222;48.858;10.128;2023-02-11T17:44:31;4.10;99.90
6379;DHT22;3222;48.858;10.128;2023-02-11T17:46:56;4.10;99.90
6379;DHT22;3222;48.858;10.128;2023-02-11T17:49:22;4.00;99.90
6379;DHT22;3222;48.858;10.128;2023-02-11T17:51:48;4.00;99.90
6379;DHT22;3222;48.858;10.128;2023-02-11T17:54:16;4.00;99.90
6379;DHT22;3222;48.858;10.128;2023-02-11T17:56:43;4.00;99.90
6379;DHT22;3222;48.858;10.128;2023-02-11T17:59:11;4.00;99.90
6379;DHT22;3222;48.858;10.128;2023-02-11T18:01:38;4.00;99.90
6379;DHT22;3222;48.858;10.128;2023-02-11T18:04:05;4.00;99.90
6379;DHT22;3222;48.858;10.128;2023-02-11T18:06:32;3.90;99.90
6379;DHT22;3222;48.858;10.128;2023-02-11T18:09:00;3.90;99.90
6379;DHT22;3222;48.858;10.128;2023-02-11T18:11:30;3.90;99.90
6379;DHT22;3222;48.858;10.128;2023-02-11T18:14:00;3.90;99.90
6379;DHT22;3222;48.858;10.128;2023-02-11T18:16:26;3.90;99.90
6379;DHT22;3222;48.858;10.128;2023-02-11T18:18:54;3.90;99.90
6379;DHT22;3222;48.858;10.128;2023-02-11T18:21:21;3.90;99.90
6379;DHT22;3222;48.858;10.128;2023-02-11T18:23:48;3.90;99.90
6379;DHT22;3222;48.858;10.128;2023-02-11T18:26:15;3.90;99.90
6379;DHT22;3222;48.858;10.128;2023-02-11T18:28:41;3.90;99.90
6379;DHT22;3222;48.858;10.128;2023-02-11T18:31:08;3.90;99.90
6379;DHT22;3222;48.858;10.128;2023-02-11T18:33:35;3.90;99.90
6379;DHT22;3222;48.858;10.128;2023-02-11T18:36:10;3.90;99.90
6379;DHT22;3222;48.858;10.128;2023-02-11T18:38:37;3.80;99.90
6379;DHT22;3222;48.858;10.128;2023-02-11T18:41:03;3.80;99.90
6379;DHT22;3222;48.858;10.128;2023-02-11T18:43:29;3.80;99.90
6379;DHT22;3222;48.858;10.128;2023-02-11T18:45:56;3.80;99.90
6379;DHT22;3222;48.858;10.128;2023-02-11T18:48:22;3.80;99.90
6379;DHT22;3222;48.858;10.128;2023-02-11T18:50:47;3.80;99.90
6379;DHT22;3222;48.858;10.128;2023-02-11T18:53:13;3.80;99.90
6379;DHT22;3222;48.858;10.128;2023-02-11T18:55:43;3.80;99.90